createdAt,value
2019-05-12T00:00:39.222Z,49.80
2019-05-12T00:01:38.921Z,50.09
2019-05-12T00:02:39.711Z,50.09
2019-05-12T00:03:38.133Z,50.38
2019-05-12T00:04:38.571Z,50.28
2019-05-12T00:05:38.391Z,50.57
2019-05-12T00:06:38.735Z,50.28
2019-05-12T00:07:38.418Z,50.57
2019-05-12T00:08:38.254Z,50.47
2019-05-12T00:09:38.827Z,51.14
2019-05-12T00:10:38.762Z,51.23
2019-05-12T00:11:38.172Z,51.33
2019-05-12T00:12:38.674Z,50.95
2019-05-12T00:13:38.619Z,51.04
2019-05-12T00:14:38.262Z,51.14
2019-05-12T00:15:38.625Z,51.52
2019-05-12T00:16:38.582Z,51.23
2019-05-12T00:17:38.829Z,51.14
2019-05-12T00:18:38.196Z,50.95
2019-05-12T00:19:38.208Z,51.14
2019-05-12T00:20:38.754Z,51.14
2019-05-12T00:21:39.952Z,51.62
2019-05-12T00:22:38.224Z,51.43
2019-05-12T00:23:38.271Z,51.14
2019-05-12T00:24:38.398Z,51.33
2019-05-12T00:25:38.762Z,51.33
2019-05-12T00:26:38.378Z,51.23
2019-05-12T00:27:38.742Z,52.38
2019-05-12T00:28:38.261Z,52.19
2019-05-12T00:29:38.272Z,52.09
2019-05-12T00:30:39.008Z,52.67
2019-05-12T00:31:38.355Z,52.48
2019-05-12T00:32:38.669Z,52.73
2019-05-12T00:33:38.581Z,53.31
2019-05-12T00:34:38.571Z,53.05
2019-05-12T00:35:38.344Z,53.05
2019-05-12T00:36:38.375Z,53.62
2019-05-12T00:37:38.379Z,53.91
2019-05-12T00:38:38.335Z,53.91
2019-05-12T00:39:38.341Z,53.72
2019-05-12T00:40:39.256Z,53.78
2019-05-12T00:41:38.921Z,53.97
2019-05-12T00:42:38.394Z,54.45
2019-05-12T00:43:38.362Z,54.26
2019-05-12T00:44:39.078Z,54.45
2019-05-12T00:45:38.809Z,54.36
2019-05-12T00:46:38.639Z,54.93
2019-05-12T00:47:39.028Z,54.93
2019-05-12T00:48:38.378Z,54.74
2019-05-12T00:49:38.414Z,55.12
2019-05-12T00:50:38.618Z,55.31
2019-05-12T00:51:38.605Z,55.31
2019-05-12T00:52:38.741Z,55.88
2019-05-12T00:53:43.189Z,55.12
2019-05-12T00:54:38.420Z,55.50
2019-05-12T00:55:38.598Z,56.07
2019-05-12T00:56:39.213Z,56.17
2019-05-12T00:57:38.475Z,56.17
2019-05-12T00:58:38.445Z,55.98
2019-05-12T00:59:38.472Z,56.46
2019-05-12T01:00:40.631Z,56.17
2019-05-12T01:01:38.476Z,56.65
2019-05-12T01:02:38.485Z,56.55
2019-05-12T01:03:38.497Z,56.55
2019-05-12T01:04:38.538Z,56.46
2019-05-12T01:05:38.773Z,56.46
2019-05-12T01:06:38.818Z,56.65
2019-05-12T01:07:38.514Z,57.03
2019-05-12T01:08:38.506Z,57.50
2019-05-12T01:09:38.642Z,57.50
2019-05-12T01:10:39.181Z,57.31
2019-05-12T01:11:38.552Z,57.50
2019-05-12T01:12:38.515Z,57.50
2019-05-12T01:13:38.557Z,57.41
2019-05-12T01:14:38.553Z,57.41
2019-05-12T01:15:38.538Z,57.41
2019-05-12T01:16:38.824Z,57.60
2019-05-12T01:17:40.533Z,57.79
2019-05-12T01:18:38.569Z,57.60
2019-05-12T01:19:40.522Z,57.79
2019-05-12T01:20:39.195Z,57.60
2019-05-12T01:21:38.568Z,57.22
2019-05-12T01:22:38.576Z,58.26
2019-05-12T01:23:53.457Z,58.26
2019-05-12T01:24:38.665Z,58.26
2019-05-12T01:25:39.708Z,58.07
2019-05-12T01:26:38.975Z,58.36
2019-05-12T01:27:38.610Z,58.75
2019-05-12T01:28:38.611Z,58.46
2019-05-12T01:29:38.669Z,59.12
2019-05-12T01:30:39.285Z,59.31
2019-05-12T01:31:38.633Z,58.36
2019-05-12T01:32:38.645Z,58.55
2019-05-12T01:33:38.651Z,58.46
2019-05-12T01:34:38.654Z,59.22
2019-05-12T01:35:39.209Z,59.12
2019-05-12T01:36:38.686Z,58.94
2019-05-12T01:37:38.673Z,59.31
2019-05-12T01:38:38.685Z,59.03
2019-05-12T01:39:38.693Z,59.22
2019-05-12T01:40:39.706Z,59.70
2019-05-12T01:41:38.961Z,59.79
2019-05-12T01:42:38.697Z,59.70
2019-05-12T01:43:38.721Z,59.79
2019-05-12T01:44:38.715Z,59.70
2019-05-12T01:45:38.736Z,59.60
2019-05-12T01:46:38.773Z,60.36
2019-05-12T01:47:38.740Z,59.70
2019-05-12T01:48:38.742Z,59.89
2019-05-12T01:49:38.746Z,59.79
2019-05-12T01:50:39.102Z,59.70
2019-05-12T01:51:38.798Z,59.89
2019-05-12T01:52:38.879Z,59.41
2019-05-12T01:53:38.783Z,59.51
2019-05-12T01:54:38.759Z,59.70
2019-05-12T01:55:39.218Z,60.27
2019-05-12T01:56:38.788Z,60.27
2019-05-12T01:57:38.875Z,59.99
2019-05-12T01:58:38.801Z,59.89
2019-05-12T01:59:38.800Z,60.08
2019-05-12T02:00:39.376Z,60.08
2019-05-12T02:01:39.133Z,60.55
2019-05-12T02:02:38.841Z,60.36
2019-05-12T02:03:38.841Z,60.36
2019-05-12T02:04:38.817Z,60.36
2019-05-12T02:05:38.835Z,60.27
2019-05-12T02:06:38.924Z,60.75
2019-05-12T02:07:38.839Z,60.36
2019-05-12T02:08:38.891Z,60.55
2019-05-12T02:09:38.870Z,60.75
2019-05-12T02:10:39.118Z,60.55
2019-05-12T02:11:38.869Z,60.84
2019-05-12T02:12:38.869Z,60.27
2019-05-12T02:13:38.880Z,60.55
2019-05-12T02:14:38.940Z,60.65
2019-05-12T02:15:38.886Z,60.55
2019-05-12T02:16:38.976Z,60.46
2019-05-12T02:17:39.284Z,60.84
2019-05-12T02:18:38.904Z,61.41
2019-05-12T02:19:38.925Z,61.04
2019-05-12T02:20:38.929Z,61.60
2019-05-12T02:21:38.931Z,61.41
2019-05-12T02:22:39.014Z,61.22
2019-05-12T02:23:38.948Z,61.41
2019-05-12T02:24:39.155Z,61.13
2019-05-12T02:25:39.001Z,61.41
2019-05-12T02:26:38.951Z,61.04
2019-05-12T02:27:38.966Z,61.70
2019-05-12T02:28:39.569Z,61.60
2019-05-12T02:29:38.992Z,61.41
2019-05-12T02:30:41.434Z,61.80
2019-05-12T02:31:39.969Z,61.80
2019-05-12T02:32:48.648Z,62.37
2019-05-12T02:33:39.037Z,62.37
2019-05-12T02:34:39.022Z,62.56
2019-05-12T02:35:39.010Z,62.56
2019-05-12T02:36:39.022Z,62.75
2019-05-12T02:37:39.017Z,62.75
2019-05-12T02:38:39.027Z,62.62
2019-05-12T02:39:39.058Z,63.04
2019-05-12T02:40:39.059Z,62.75
2019-05-12T02:41:39.061Z,62.56
2019-05-12T02:42:39.050Z,63.10
2019-05-12T02:43:39.068Z,63.10
2019-05-12T02:44:39.089Z,63.04
2019-05-12T02:45:39.106Z,62.91
2019-05-12T02:46:39.080Z,63.48
2019-05-12T02:47:39.197Z,63.20
2019-05-12T02:48:39.096Z,63.20
2019-05-12T02:49:39.109Z,63.29
2019-05-12T02:50:39.091Z,63.20
2019-05-12T02:51:39.123Z,63.29
2019-05-12T02:52:39.110Z,63.48
2019-05-12T02:53:39.107Z,63.57
2019-05-12T02:54:51.806Z,63.48
2019-05-12T02:55:39.111Z,63.96
2019-05-12T02:56:39.154Z,64.09
2019-05-12T02:57:39.122Z,63.67
2019-05-12T02:58:39.148Z,63.86
2019-05-12T02:59:39.149Z,63.96
2019-05-12T03:00:39.145Z,63.76
2019-05-12T03:01:39.190Z,63.96
2019-05-12T03:02:39.163Z,64.24
2019-05-12T03:03:39.177Z,64.34
2019-05-12T03:04:39.165Z,64.72
2019-05-12T03:05:39.186Z,63.80
2019-05-12T03:06:39.194Z,64.05
2019-05-12T03:07:39.234Z,64.72
2019-05-12T03:08:39.219Z,64.62
2019-05-12T03:09:39.193Z,64.62
2019-05-12T03:10:39.206Z,64.72
2019-05-12T03:11:39.309Z,64.53
2019-05-12T03:12:39.229Z,63.96
2019-05-12T03:13:39.226Z,63.99
2019-05-12T03:14:40.896Z,64.62
2019-05-12T03:15:39.225Z,64.34
2019-05-12T03:16:39.234Z,64.72
2019-05-12T03:17:39.305Z,65.10
2019-05-12T03:18:39.253Z,64.34
2019-05-12T03:19:39.275Z,64.81
2019-05-12T03:20:39.311Z,65.10
2019-05-12T03:21:39.269Z,65.58
2019-05-12T03:22:39.276Z,65.67
2019-05-12T03:23:39.294Z,65.39
2019-05-12T03:24:39.276Z,65.77
2019-05-12T03:25:39.282Z,65.58
2019-05-12T03:26:39.290Z,65.67
2019-05-12T03:27:39.296Z,65.67
2019-05-12T03:28:39.329Z,66.24
2019-05-12T03:29:39.314Z,65.96
2019-05-12T03:30:41.030Z,65.96
2019-05-12T03:31:40.957Z,66.72
2019-05-12T03:32:39.340Z,66.44
2019-05-12T03:33:43.659Z,66.24
2019-05-12T03:34:39.383Z,66.53
2019-05-12T03:35:43.888Z,66.82
2019-05-12T03:36:42.646Z,66.63
2019-05-12T03:37:39.359Z,66.24
2019-05-12T03:38:39.423Z,66.34
2019-05-12T03:39:39.415Z,66.34
2019-05-12T03:40:39.373Z,66.24
2019-05-12T03:41:39.381Z,66.24
2019-05-12T03:42:39.396Z,65.86
2019-05-12T03:43:39.391Z,66.34
2019-05-12T03:44:39.389Z,65.96
2019-05-12T03:45:39.435Z,66.05
2019-05-12T03:46:39.523Z,66.24
2019-05-12T03:47:39.412Z,66.34
2019-05-12T03:48:39.419Z,66.05
2019-05-12T03:49:39.417Z,66.44
2019-05-12T03:50:39.422Z,65.96
2019-05-12T03:51:39.433Z,65.86
2019-05-12T03:52:39.458Z,65.29
2019-05-12T03:53:39.455Z,65.29
2019-05-12T03:54:39.500Z,65.10
2019-05-12T03:55:42.419Z,65.48
2019-05-12T03:56:39.461Z,65.77
2019-05-12T03:57:39.480Z,65.86
2019-05-12T03:58:39.471Z,65.58
2019-05-12T03:59:39.506Z,65.86
2019-05-12T04:00:39.539Z,65.86
2019-05-12T04:01:39.501Z,65.77
2019-05-12T04:02:39.517Z,66.15
2019-05-12T04:03:39.517Z,65.77
2019-05-12T04:04:39.493Z,66.05
2019-05-12T04:05:39.495Z,65.48
2019-05-12T04:06:39.546Z,65.58
2019-05-12T04:07:39.543Z,65.39
2019-05-12T04:08:39.538Z,65.67
2019-05-12T04:09:39.541Z,65.67
2019-05-12T04:10:39.565Z,65.29
2019-05-12T04:11:39.634Z,65.48
2019-05-12T04:12:39.566Z,65.48
2019-05-12T04:13:39.580Z,65.86
2019-05-12T04:14:39.553Z,65.29
2019-05-12T04:15:39.561Z,65.00
2019-05-12T04:16:39.597Z,65.48
2019-05-12T04:17:39.574Z,64.81
2019-05-12T04:18:39.583Z,65.20
2019-05-12T04:19:39.586Z,65.00
2019-05-12T04:20:39.594Z,64.91
2019-05-12T04:21:39.731Z,64.81
2019-05-12T04:22:39.617Z,64.72
2019-05-12T04:23:39.617Z,64.53
2019-05-12T04:24:39.622Z,64.72
2019-05-12T04:25:52.621Z,64.53
2019-05-12T04:26:39.643Z,64.62
2019-05-12T04:27:39.639Z,64.62
2019-05-12T10:01:08.307Z,36.80
2019-05-12T10:02:10.527Z,36.80
2019-05-12T10:03:08.778Z,36.61
2019-05-12T10:04:10.380Z,37.57
2019-05-12T10:05:08.319Z,37.66
2019-05-12T10:06:11.350Z,38.43
2019-05-12T10:07:08.313Z,39.48
2019-05-12T10:08:08.320Z,39.86
2019-05-12T10:09:13.708Z,38.43
2019-05-12T10:10:08.353Z,38.24
2019-05-12T10:11:10.183Z,37.19
2019-05-12T10:12:08.357Z,36.43
2019-05-12T10:13:08.414Z,36.43
2019-05-12T10:14:10.818Z,36.04
2019-05-12T10:15:08.532Z,36.43
2019-05-12T10:16:08.900Z,36.52
2019-05-12T10:17:08.388Z,36.90
2019-05-12T10:18:11.186Z,36.04
2019-05-12T10:19:08.451Z,35.75
2019-05-12T10:20:08.412Z,35.28
2019-05-12T10:21:10.070Z,34.99
2019-05-12T10:22:08.442Z,33.27
2019-05-12T10:23:10.322Z,33.36
2019-05-12T10:24:08.441Z,33.94
2019-05-12T10:25:08.758Z,34.80
2019-05-12T10:26:11.595Z,34.42
2019-05-12T10:27:08.475Z,34.42
2019-05-12T10:28:13.132Z,33.65
2019-05-12T10:29:19.606Z,34.13
2019-05-12T10:30:12.302Z,33.94
2019-05-12T10:31:08.461Z,34.13
2019-05-12T10:32:10.359Z,33.36
2019-05-12T10:33:08.476Z,33.36
2019-05-12T10:34:08.608Z,33.94
2019-05-12T10:35:12.514Z,33.46
2019-05-12T10:36:08.699Z,32.98
2019-05-12T10:37:08.538Z,33.17
2019-05-12T10:38:10.683Z,33.07
2019-05-12T10:39:08.701Z,33.27
2019-05-12T10:40:08.527Z,33.27
2019-05-12T10:41:08.530Z,33.27
2019-05-12T10:42:08.608Z,33.17
2019-05-12T10:43:08.559Z,33.27
2019-05-12T10:44:08.598Z,33.19
2019-05-12T10:45:10.715Z,32.89
2019-05-12T10:46:08.626Z,32.62
2019-05-12T10:47:08.583Z,32.23
2019-05-12T10:48:08.842Z,31.37
2019-05-12T10:49:08.588Z,31.27
2019-05-12T10:50:08.601Z,31.37
2019-05-12T10:51:08.619Z,29.36
2019-05-12T10:52:08.641Z,27.26
2019-05-12T10:53:09.846Z,27.64
2019-05-12T10:54:13.101Z,28.41
2019-05-12T10:55:08.660Z,28.79
2019-05-12T10:56:08.652Z,29.27
2019-05-12T10:57:08.647Z,29.55
2019-05-12T10:58:08.665Z,29.27
2019-05-12T10:59:08.707Z,29.84
2019-05-12T11:00:08.702Z,30.13
2019-05-12T11:01:08.773Z,30.32
2019-05-12T11:02:08.710Z,30.51
2019-05-12T11:03:12.239Z,30.22
2019-05-12T11:04:08.731Z,29.84
2019-05-12T11:05:12.587Z,30.80
2019-05-12T11:06:08.734Z,31.76
2019-05-12T11:07:08.721Z,31.76
2019-05-12T11:08:10.955Z,32.04
2019-05-12T11:09:08.766Z,32.33
2019-05-12T11:10:15.308Z,33.00
2019-05-12T11:11:08.752Z,32.90
2019-05-12T11:12:08.767Z,32.62
2019-05-12T11:13:10.036Z,32.23
2019-05-12T11:14:08.889Z,32.71
2019-05-12T11:15:08.805Z,32.82
2019-05-12T11:16:08.795Z,32.92
2019-05-12T11:17:09.548Z,32.90
2019-05-12T11:18:08.867Z,33.01
2019-05-12T11:19:10.519Z,32.73
2019-05-12T11:20:08.841Z,33.30
2019-05-12T11:21:08.866Z,33.30
2019-05-12T11:22:08.912Z,32.34
2019-05-12T11:23:08.848Z,31.38
2019-05-12T11:24:08.935Z,29.19
2019-05-12T11:25:08.888Z,29.09
2019-05-12T11:26:08.874Z,29.19
2019-05-12T11:27:09.016Z,29.57
2019-05-12T11:28:08.876Z,30.15
2019-05-12T11:29:08.899Z,30.62
2019-05-12T11:30:08.974Z,30.52
2019-05-12T11:31:08.907Z,30.52
2019-05-12T11:32:08.922Z,30.52
2019-05-12T11:33:08.921Z,30.15
2019-05-12T11:34:08.926Z,30.15
2019-05-12T11:35:08.921Z,30.05
2019-05-12T11:36:08.966Z,30.81
2019-05-12T11:37:08.953Z,31.48
2019-05-12T11:38:08.952Z,31.87
2019-05-12T11:39:08.961Z,32.15
2019-05-12T11:40:09.022Z,32.44
2019-05-12T11:41:10.005Z,32.25
2019-05-12T11:42:08.981Z,32.54
2019-05-12T11:43:09.120Z,32.54
2019-05-12T11:44:09.001Z,32.54
2019-05-12T11:45:09.010Z,33.22
2019-05-12T11:46:09.048Z,33.22
2019-05-12T11:47:14.067Z,33.22
2019-05-12T11:48:10.397Z,32.92
2019-05-12T11:49:09.675Z,32.92
2019-05-12T11:50:10.062Z,33.12
2019-05-12T11:51:09.064Z,33.11
2019-05-12T11:52:13.361Z,32.73
2019-05-12T11:53:09.089Z,32.73
2019-05-12T11:54:10.670Z,32.25
2019-05-12T11:55:09.112Z,31.96
2019-05-12T11:56:09.348Z,31.96
2019-05-12T11:57:09.123Z,32.06
2019-05-12T11:58:11.366Z,31.29
2019-05-12T11:59:09.126Z,30.24
2019-05-12T12:00:09.120Z,30.05
2019-05-12T12:01:09.183Z,29.87
2019-05-12T12:02:09.562Z,30.43
2019-05-12T12:03:13.375Z,30.35
2019-05-12T12:04:09.144Z,30.52
2019-05-12T12:05:09.176Z,31.50
2019-05-12T12:06:09.164Z,31.98
2019-05-12T12:07:09.188Z,31.58
2019-05-12T12:08:09.246Z,31.88
2019-05-12T12:09:14.456Z,31.58
2019-05-12T12:10:09.216Z,30.43
2019-05-12T12:11:10.447Z,29.58
2019-05-12T12:12:09.246Z,28.90
2019-05-12T12:13:09.264Z,28.44
2019-05-12T12:14:10.673Z,28.44
2019-05-12T12:15:09.288Z,27.86
2019-05-12T12:16:11.237Z,27.47
2019-05-12T12:17:09.306Z,27.47
2019-05-12T12:18:13.734Z,27.66
2019-05-12T12:19:09.285Z,28.53
2019-05-12T12:20:14.047Z,28.63
2019-05-12T12:21:09.283Z,28.63
2019-05-12T12:22:09.345Z,28.72
2019-05-12T12:23:11.261Z,29.30
2019-05-12T12:24:09.348Z,29.39
2019-05-12T12:25:11.041Z,30.16
2019-05-12T12:26:09.317Z,29.97
2019-05-12T12:27:09.339Z,30.44
2019-05-12T12:28:09.365Z,30.16
2019-05-12T12:29:09.343Z,30.26
2019-05-12T12:30:18.574Z,30.16
2019-05-12T12:31:09.388Z,29.87
2019-05-12T12:32:09.968Z,30.26
2019-05-12T12:33:09.410Z,30.06
2019-05-12T12:34:09.371Z,30.06
2019-05-12T12:35:12.965Z,30.16
2019-05-12T12:36:09.408Z,30.26
2019-05-12T12:37:09.406Z,30.64
2019-05-12T12:38:09.442Z,30.06
2019-05-12T12:39:09.433Z,30.35
2019-05-12T12:40:09.466Z,30.54
2019-05-12T12:41:09.464Z,30.16
2019-05-12T12:42:09.434Z,30.35
2019-05-12T12:43:09.454Z,30.26
2019-05-12T12:44:09.471Z,30.26
2019-05-12T12:45:09.480Z,29.97
2019-05-12T12:46:10.724Z,29.11
2019-05-12T12:47:09.471Z,29.11
2019-05-12T12:48:09.492Z,29.20
2019-05-12T12:49:10.511Z,29.20
2019-05-12T12:50:09.498Z,28.81
2019-05-12T12:51:09.529Z,28.72
2019-05-12T12:52:09.540Z,28.05
2019-05-12T12:53:09.529Z,27.78
2019-05-12T12:54:09.558Z,26.90
2019-05-12T12:55:09.553Z,26.52
2019-05-12T12:56:09.581Z,25.85
2019-05-12T12:57:10.161Z,25.66
2019-05-12T12:58:09.558Z,24.80
2019-05-12T12:59:10.509Z,24.60
2019-05-12T13:00:09.580Z,24.70
2019-05-12T13:01:14.187Z,23.93
2019-05-12T13:02:09.602Z,23.93
2019-05-12T13:03:09.656Z,24.22
2019-05-12T13:04:09.652Z,23.55
2019-05-12T13:05:09.619Z,23.36
2019-05-12T13:06:09.670Z,23.74
2019-05-12T13:07:09.637Z,24.80
2019-05-12T13:08:09.636Z,25.37
2019-05-12T13:09:18.493Z,25.18
2019-05-12T13:10:09.908Z,24.89
2019-05-12T13:11:09.685Z,25.09
2019-05-12T13:12:15.835Z,24.51
2019-05-12T13:13:09.691Z,24.41
2019-05-12T13:14:09.696Z,23.65
2019-05-12T13:15:09.805Z,24.23
2019-05-12T13:16:09.821Z,25.00
2019-05-12T13:17:09.717Z,25.67
2019-05-12T13:19:16.588Z,25.86
2019-05-12T13:20:09.746Z,26.63
2019-05-12T13:21:09.759Z,26.15
2019-05-12T13:22:14.955Z,25.67
2019-05-12T13:23:09.817Z,24.71
2019-05-12T13:24:09.761Z,23.85
2019-05-12T13:25:09.825Z,23.57
2019-05-12T13:26:09.796Z,23.18
2019-05-12T13:27:09.807Z,23.27
2019-05-12T13:28:13.301Z,23.37
2019-05-12T13:29:09.828Z,23.37
2019-05-12T13:30:16.344Z,24.04
2019-05-12T13:31:15.303Z,24.71
2019-05-12T13:32:09.828Z,24.52
2019-05-12T13:33:15.050Z,24.90
2019-05-12T13:34:09.882Z,25.10
2019-05-12T13:35:15.426Z,25.86
2019-05-12T13:36:09.855Z,25.57
2019-05-12T13:37:15.546Z,26.43
2019-05-12T13:38:09.904Z,26.63
2019-05-12T13:39:11.354Z,25.57
2019-05-12T13:40:09.906Z,25.96
2019-05-12T13:41:15.128Z,25.29
2019-05-12T13:42:10.334Z,24.71
2019-05-12T13:43:15.585Z,24.43
2019-05-12T13:44:09.920Z,25.38
2019-05-12T13:45:13.171Z,25.86
2019-05-12T13:46:09.982Z,26.34
2019-05-12T13:47:09.971Z,26.43
2019-05-12T13:48:17.331Z,26.63
2019-05-12T13:49:09.966Z,26.25
2019-05-12T13:50:15.896Z,25.67
2019-05-12T13:51:13.284Z,25.67
2019-05-12T13:52:10.007Z,26.15
2019-05-12T13:53:10.437Z,26.25
2019-05-12T13:54:10.033Z,26.34
2019-05-12T13:55:10.004Z,26.25
2019-05-12T13:56:10.025Z,25.96
2019-05-12T13:57:13.310Z,25.77
2019-05-12T13:58:10.081Z,25.67
2019-05-12T13:59:12.091Z,25.57
2019-05-12T14:00:11.062Z,25.77
2019-05-12T14:01:16.985Z,25.67
2019-05-12T14:02:16.242Z,25.29
2019-05-12T14:03:10.098Z,25.86
2019-05-12T14:04:10.202Z,25.86
2019-05-12T14:05:14.098Z,26.53
2019-05-12T14:06:10.132Z,26.43
2019-05-12T14:07:15.732Z,26.15
2019-05-12T14:08:10.117Z,26.06
2019-05-12T14:09:10.134Z,25.19
2019-05-12T14:10:10.189Z,25.00
2019-05-12T14:11:10.139Z,24.90
2019-05-12T14:12:10.156Z,24.71
2019-05-12T14:13:10.216Z,24.04
2019-05-12T14:14:15.269Z,23.94
2019-05-12T14:15:10.308Z,23.75
2019-05-12T14:16:10.198Z,23.85
2019-05-12T14:17:10.271Z,23.85
2019-05-12T14:18:15.100Z,23.57
2019-05-12T14:19:10.299Z,23.85
2019-05-12T14:20:15.796Z,24.52
2019-05-12T14:21:10.270Z,24.90
2019-05-12T14:22:15.160Z,24.91
2019-05-12T14:23:10.264Z,24.43
2019-05-12T14:24:10.318Z,24.43
2019-05-12T14:25:10.261Z,24.81
2019-05-12T14:26:10.265Z,25.00
2019-05-12T14:27:10.301Z,25.77
2019-05-12T14:28:13.465Z,25.68
2019-05-12T14:29:10.315Z,25.57
2019-05-12T14:30:11.676Z,25.68
2019-05-12T14:31:22.757Z,25.87
2019-05-12T14:32:12.074Z,26.26
2019-05-12T14:33:10.347Z,26.25
2019-05-12T14:34:15.794Z,26.15
2019-05-12T14:35:10.339Z,25.57
2019-05-12T14:36:13.653Z,25.48
2019-05-12T14:37:10.640Z,25.57
2019-05-12T14:38:10.393Z,25.67
2019-05-12T14:39:10.559Z,25.67
2019-05-12T14:40:10.419Z,25.57
2019-05-12T14:41:11.710Z,25.49
2019-05-12T14:42:10.397Z,25.38
2019-05-12T14:43:15.792Z,25.38
2019-05-12T14:44:10.417Z,25.38
2019-05-12T14:45:10.440Z,25.48
2019-05-12T14:46:10.647Z,25.77
2019-05-12T14:47:10.428Z,25.57
2019-05-12T14:48:10.446Z,25.19
2019-05-12T14:49:10.455Z,25.10
2019-05-12T14:50:10.486Z,25.57
2019-05-12T14:51:10.492Z,25.48
2019-05-12T14:52:10.478Z,26.25
2019-05-12T14:53:10.483Z,26.25
2019-05-12T14:54:10.491Z,26.82
2019-05-12T14:55:10.531Z,26.63
2019-05-12T14:56:10.500Z,25.96
2019-05-12T14:57:10.534Z,25.57
2019-05-12T14:58:17.709Z,25.96
2019-05-12T14:59:10.537Z,25.96
2019-05-12T15:00:11.395Z,25.48
2019-05-12T15:01:10.563Z,25.10
2019-05-12T15:02:10.563Z,25.00
2019-05-12T15:03:15.578Z,25.48
2019-05-12T15:04:10.589Z,25.67
2019-05-12T15:05:10.994Z,25.77
2019-05-12T15:06:10.624Z,26.15
2019-05-12T15:07:10.590Z,25.77
2019-05-12T15:08:10.609Z,26.06
2019-05-12T15:09:16.720Z,26.06
2019-05-12T15:10:10.636Z,25.48
2019-05-12T15:11:10.644Z,26.06
2019-05-12T15:12:10.639Z,26.63
2019-05-12T15:13:10.639Z,26.92
2019-05-12T15:14:10.651Z,26.82
2019-05-12T15:15:15.631Z,26.82
2019-05-12T15:16:10.699Z,26.92
2019-05-12T15:17:13.725Z,26.82
2019-05-12T15:18:13.162Z,26.82
2019-05-12T15:19:10.694Z,26.53
2019-05-12T15:20:10.910Z,26.53
2019-05-12T15:21:10.722Z,25.48
2019-05-12T15:22:12.432Z,25.48
2019-05-12T15:23:10.718Z,25.29
2019-05-12T15:24:15.237Z,25.00
2019-05-12T15:25:10.755Z,25.19
2019-05-12T15:26:15.732Z,25.29
2019-05-12T15:27:13.291Z,24.90
2019-05-12T15:28:10.764Z,25.29
2019-05-12T15:29:13.521Z,25.19
2019-05-12T15:30:20.212Z,25.38
2019-05-12T15:31:10.800Z,25.77
2019-05-12T15:32:10.872Z,24.99
2019-05-12T15:33:10.812Z,24.90
2019-05-12T15:34:10.815Z,24.52
2019-05-12T15:35:10.847Z,25.18
2019-05-12T15:36:10.887Z,25.09
2019-05-12T15:37:11.006Z,25.27
2019-05-12T15:38:14.714Z,25.18
2019-05-12T15:39:10.878Z,25.27
2019-05-12T15:40:10.853Z,25.37
2019-05-12T15:41:15.718Z,25.56
2019-05-12T15:42:11.020Z,25.77
2019-05-12T15:43:10.905Z,25.66
2019-05-12T15:44:10.882Z,25.66
2019-05-12T15:45:12.763Z,25.18
2019-05-12T15:46:10.913Z,25.46
2019-05-12T15:47:11.181Z,25.66
2019-05-12T15:48:10.956Z,25.75
2019-05-12T15:49:10.927Z,25.56
2019-05-12T15:50:10.949Z,25.66
2019-05-12T15:51:10.984Z,25.75
2019-05-12T15:52:10.952Z,25.56
2019-05-12T15:53:13.726Z,25.56
2019-05-12T15:54:11.788Z,25.56
2019-05-12T15:55:13.439Z,25.46
2019-05-12T15:56:17.626Z,25.27
2019-05-12T15:57:13.405Z,25.27
2019-05-12T15:58:11.050Z,25.18
2019-05-12T15:59:11.050Z,24.99
2019-05-12T16:00:13.885Z,24.89
2019-05-12T16:01:11.016Z,24.89
2019-05-12T16:02:16.259Z,25.18
2019-05-12T16:03:11.027Z,24.89
2019-05-12T16:04:11.983Z,24.70
2019-05-12T16:05:11.052Z,24.89
2019-05-12T16:06:14.636Z,24.89
2019-05-12T16:07:11.086Z,25.09
2019-05-12T16:08:11.080Z,25.27
2019-05-12T16:09:13.132Z,25.37
2019-05-12T16:10:11.101Z,25.66
2019-05-12T16:11:11.112Z,25.66
2019-05-12T16:12:20.057Z,25.27
2019-05-12T16:13:11.109Z,24.89
2019-05-12T16:14:11.113Z,24.99
2019-05-12T16:15:16.478Z,25.18
2019-05-12T16:16:11.166Z,25.27
2019-05-12T16:17:11.141Z,25.27
2019-05-12T16:18:11.142Z,25.75
2019-05-12T16:19:11.158Z,25.66
2019-05-12T16:20:11.174Z,25.66
2019-05-12T16:21:11.199Z,26.23
2019-05-12T16:22:11.209Z,26.23
2019-05-12T16:23:15.506Z,26.23
2019-05-12T16:24:12.551Z,26.42
2019-05-12T16:25:11.211Z,26.52
2019-05-12T16:26:13.089Z,26.42
2019-05-12T16:27:11.243Z,26.90
2019-05-12T16:28:17.125Z,27.00
2019-05-12T16:29:11.257Z,27.38
2019-05-12T16:30:13.602Z,27.37
2019-05-12T16:31:11.270Z,27.19
2019-05-12T16:32:23.806Z,27.48
2019-05-12T16:33:14.394Z,26.89
2019-05-12T16:34:13.715Z,26.90
2019-05-12T16:35:11.276Z,26.79
2019-05-12T16:36:14.274Z,27.08
2019-05-12T16:37:11.296Z,27.08
2019-05-12T16:38:18.005Z,27.66
2019-05-12T16:39:13.355Z,27.27
2019-05-12T16:40:13.437Z,27.37
2019-05-12T16:41:14.047Z,27.18
2019-05-12T16:42:11.393Z,26.79
2019-05-12T16:43:11.350Z,26.98
2019-05-12T16:44:20.823Z,26.79
2019-05-12T16:45:11.383Z,26.70
2019-05-12T16:46:11.400Z,26.51
2019-05-12T23:39:14.301Z,48.68
2019-05-12T23:40:16.565Z,48.58
2019-05-12T23:41:13.576Z,48.49
2019-05-12T23:42:13.620Z,48.11
2019-05-12T23:43:14.517Z,48.11
2019-05-12T23:44:13.545Z,48.30
2019-05-12T23:45:13.972Z,48.02
2019-05-12T23:46:12.927Z,48.21
2019-05-12T23:47:12.976Z,48.02
2019-05-12T23:48:14.264Z,48.39
2019-05-12T23:49:14.404Z,47.82
2019-05-12T23:50:14.147Z,47.34
2019-05-12T23:51:14.306Z,47.32
2019-05-12T23:52:14.071Z,46.97
2019-05-12T23:53:13.962Z,47.04
2019-05-12T23:54:14.382Z,47.23
2019-05-12T23:55:13.805Z,46.94
2019-05-12T23:56:12.973Z,46.49
2019-05-12T23:57:15.513Z,46.75
2019-05-12T23:58:14.409Z,47.23
2019-05-12T23:59:13.522Z,47.04
